Time;durP1;ratioP1;P1;durP2;ratioP2;P2;SDS_P1;SDS_P2;PMS_P1;PMS_P2;Temp;Humidity;BMP_temperature;BMP_pressure;BME280_temperature;BME280_humidity;BME280_pressure;Samples;Min_cycle;Max_cycle;Signal;HPM_P1;HPM_P2
2022/12/08 00:01:44;;;;;;;12.47;5.37;;;2.40;99.90;;;;;;4225246;28;20464;-77
2022/12/08 00:03:46;;;;;;;10.20;5.20;;;2.40;99.90;;;;;;4222010;28;20459;-78
2022/12/08 00:10:29;;;;;;;17.53;6.17;;;2.50;99.90;;;;;;4218451;28;21065;-77
2022/12/08 00:12:31;;;;;;;12.20;5.60;;;2.40;99.90;;;;;;4218180;28;20443;-78
2022/12/08 00:14:35;;;;;;;16.00;5.67;;;2.40;99.90;;;;;;4226665;28;20478;-77
2022/12/08 00:16:37;;;;;;;15.40;6.20;;;2.40;99.90;;;;;;4218632;28;20452;-77
2022/12/08 00:18:39;;;;;;;12.30;5.90;;;2.50;99.90;;;;;;4218788;28;20459;-77
2022/12/08 00:20:41;;;;;;;14.10;5.87;;;2.40;99.90;;;;;;4218770;28;20817;-78
2022/12/08 00:22:44;;;;;;;16.43;6.90;;;2.50;99.90;;;;;;4221130;28;20450;-78
2022/12/08 00:24:46;;;;;;;20.50;6.30;;;2.50;99.90;;;;;;4220412;28;20486;-77
2022/12/08 00:26:48;;;;;;;15.10;6.57;;;3.20;99.90;;;;;;4221495;28;20857;-78
2022/12/08 00:28:50;;;;;;;14.80;5.77;;;2.50;99.90;;;;;;4214235;28;20520;-78
2022/12/08 00:30:52;;;;;;;16.20;6.53;;;2.50;99.90;;;;;;4214341;28;20455;-78
2022/12/08 00:32:54;;;;;;;12.30;6.40;;;2.40;99.90;;;;;;4217012;28;20455;-78
2022/12/08 00:34:56;;;;;;;12.47;6.13;;;2.40;99.90;;;;;;4218613;28;20474;-78
2022/12/08 00:36:58;;;;;;;21.33;7.23;;;2.50;99.90;;;;;;4224239;28;20450;-78
2022/12/08 00:39:01;;;;;;;16.13;6.10;;;2.40;99.90;;;;;;4218056;28;20482;-79
2022/12/08 00:41:04;;;;;;;12.70;6.27;;;2.40;99.90;;;;;;4218932;28;20873;-78
2022/12/08 00:43:08;;;;;;;16.30;6.30;;;2.40;99.90;;;;;;4227872;28;20520;-78
2022/12/08 00:45:10;;;;;;;18.40;6.30;;;2.40;99.90;;;;;;4222660;28;20573;-79
2022/12/08 00:47:14;;;;;;;16.40;7.17;;;2.40;99.90;;;;;;4213445;28;20546;-78
2022/12/08 00:49:17;;;;;;;17.70;6.10;;;2.40;99.90;;;;;;4212968;28;20483;-78
2022/12/08 00:51:21;;;;;;;15.47;6.40;;;2.40;99.90;;;;;;4215489;28;20498;-78
2022/12/08 00:53:23;;;;;;;16.50;6.73;;;2.40;99.90;;;;;;4219014;28;20538;-78
2022/12/08 00:55:27;;;;;;;16.17;6.77;;;2.40;99.90;;;;;;4221255;28;20467;-78
2022/12/08 00:57:29;;;;;;;14.30;5.90;;;2.40;99.90;;;;;;4214508;28;20481;-78
2022/12/08 00:59:30;;;;;;;16.57;6.43;;;2.50;99.90;;;;;;4219076;28;20458;-78
2022/12/08 01:01:33;;;;;;;14.97;6.77;;;2.40;99.90;;;;;;4218692;28;20455;-79
2022/12/08 01:03:35;;;;;;;14.40;6.40;;;2.40;99.90;;;;;;4212976;28;20504;-78
2022/12/08 01:05:37;;;;;;;16.67;6.67;;;2.50;99.90;;;;;;4222063;28;20540;-78
2022/12/08 01:07:39;;;;;;;17.27;6.90;;;3.10;99.90;;;;;;4218095;28;20861;-77
2022/12/08 01:09:41;;;;;;;17.07;6.97;;;2.50;99.90;;;;;;4215376;28;20459;-79
2022/12/08 01:11:48;;;;;;;13.57;6.10;;;2.50;99.90;;;;;;4215185;28;20443;-78
2022/12/08 01:13:52;;;;;;;19.20;6.87;;;2.50;99.90;;;;;;4223653;28;20453;-78
2022/12/08 01:15:54;;;;;;;14.70;6.57;;;2.40;99.90;;;;;;4221751;28;20470;-78
2022/12/08 01:17:56;;;;;;;13.67;6.63;;;2.50;99.90;;;;;;4222866;28;20447;-78
2022/12/08 01:19:58;;;;;;;19.23;7.00;;;2.40;99.90;;;;;;4221953;28;20446;-77
2022/12/08 01:22:00;;;;;;;13.97;6.50;;;2.60;99.90;;;;;;4217573;28;20515;-77
2022/12/08 01:24:02;;;;;;;15.43;6.50;;;3.40;99.90;;;;;;4220060;28;20841;-78
2022/12/08 01:26:05;;;;;;;14.53;6.37;;;2.50;99.90;;;;;;4227216;28;20537;-78
2022/12/08 01:28:08;;;;;;;12.50;6.07;;;2.50;99.90;;;;;;4220481;28;20512;-77
2022/12/08 01:30:12;;;;;;;15.43;7.33;;;2.50;99.90;;;;;;4213496;28;20447;-78
2022/12/08 01:32:14;;;;;;;15.10;6.40;;;2.50;99.90;;;;;;4218199;28;20482;-79
2022/12/08 01:34:16;;;;;;;13.40;6.30;;;2.50;99.90;;;;;;4213462;28;20462;-79
2022/12/08 01:36:20;;;;;;;15.63;7.17;;;2.50;99.90;;;;;;4218235;28;20979;-79
2022/12/08 01:38:23;;;;;;;17.07;6.90;;;2.50;99.90;;;;;;4215612;28;20524;-78
2022/12/08 01:40:25;;;;;;;16.90;6.87;;;2.50;99.90;;;;;;4222171;28;20639;-78
2022/12/08 01:42:26;;;;;;;15.53;6.87;;;2.50;99.90;;;;;;4219458;28;20501;-78
2022/12/08 01:44:53;;;;;;;19.83;7.13;;;2.50;99.90;;;;;;4222872;28;20490;-78
2022/12/08 01:46:55;;;;;;;14.67;6.87;;;2.50;99.90;;;;;;4214262;28;20455;-78
2022/12/08 01:49:03;;;;;;;13.80;7.03;;;2.50;99.90;;;;;;4216269;28;20499;-78
2022/12/08 01:51:06;;;;;;;14.90;7.53;;;2.50;99.90;;;;;;4216241;28;20967;-78
2022/12/08 01:53:12;;;;;;;20.87;6.50;;;2.40;99.90;;;;;;4219856;28;20503;-78
2022/12/08 01:55:20;;;;;;;13.07;6.30;;;2.50;99.90;;;;;;4222012;28;21025;-78
2022/12/08 01:57:25;;;;;;;12.87;6.77;;;2.50;99.90;;;;;;4223028;28;20450;-78
2022/12/08 01:59:29;;;;;;;17.20;6.33;;;2.50;99.90;;;;;;4223891;28;20494;-78
2022/12/08 02:01:32;;;;;;;15.90;6.77;;;2.40;99.90;;;;;;4223642;28;20839;-78
2022/12/08 02:03:40;;;;;;;12.50;6.10;;;2.40;99.90;;;;;;4219755;28;20478;-78
2022/12/08 02:05:43;;;;;;;18.63;6.27;;;2.40;99.90;;;;;;4222086;28;20529;-78
2022/12/08 02:07:46;;;;;;;13.60;5.60;;;2.40;99.90;;;;;;4216860;28;20973;-78
2022/12/08 02:09:48;;;;;;;13.97;6.27;;;2.40;99.90;;;;;;4219830;28;20461;-78
2022/12/08 02:11:51;;;;;;;14.03;5.80;;;2.40;99.90;;;;;;4232160;27;20524;-78
2022/12/08 02:13:55;;;;;;;16.37;5.87;;;2.40;99.90;;;;;;4225010;28;20804;-77
2022/12/08 02:16:05;;;;;;;10.90;5.67;;;2.40;99.90;;;;;;4229972;28;21046;-79
2022/12/08 02:18:19;;;;;;;14.73;5.90;;;2.40;99.90;;;;;;4219524;28;20489;-78
2022/12/08 02:20:48;;;;;;;14.10;5.90;;;2.40;99.90;;;;;;4228133;28;20462;-78
2022/12/08 02:23:00;;;;;;;11.00;5.10;;;2.40;99.90;;;;;;4219454;28;20446;-78
2022/12/08 02:25:10;;;;;;;12.07;5.10;;;2.40;99.90;;;;;;4224702;28;20492;-78
2022/12/08 02:27:39;;;;;;;14.70;5.13;;;2.40;99.90;;;;;;4216641;28;20470;-78
2022/12/08 02:30:07;;;;;;;10.77;5.03;;;2.40;99.90;;;;;;4217633;28;20453;-78
2022/12/08 02:32:40;;;;;;;13.60;5.73;;;2.20;99.90;;;;;;4205774;28;20477;-78
2022/12/08 02:34:45;;;;;;;17.83;5.60;;;2.30;99.90;;;;;;4218051;28;20567;-77
2022/12/08 02:36:57;;;;;;;13.07;5.53;;;2.40;99.90;;;;;;4230575;28;20822;-78
2022/12/08 02:39:05;;;;;;;10.80;5.07;;;2.40;99.90;;;;;;4227015;28;20882;-78
2022/12/08 02:41:17;;;;;;;11.27;5.33;;;2.40;99.90;;;;;;4221272;28;20461;-77
2022/12/08 02:43:27;;;;;;;16.33;5.43;;;2.40;99.90;;;;;;4229209;28;20506;-77
2022/12/08 02:45:34;;;;;;;8.33;4.73;;;2.40;99.90;;;;;;4220791;28;20490;-77
2022/12/08 02:47:37;;;;;;;15.27;5.33;;;2.40;99.90;;;;;;4222914;28;20879;-78
2022/12/08 02:49:39;;;;;;;11.27;4.40;;;2.50;99.90;;;;;;4224482;27;20522;-77
2022/12/08 02:51:42;;;;;;;13.73;5.27;;;2.40;99.90;;;;;;4215500;28;20538;-78
2022/12/08 02:53:45;;;;;;;11.17;4.90;;;2.60;99.90;;;;;;4222918;28;20454;-78
2022/12/08 02:55:58;;;;;;;9.90;4.97;;;2.50;99.90;;;;;;4223882;28;21034;-77
2022/12/08 02:58:30;;;;;;;9.17;4.70;;;2.40;99.90;;;;;;4221181;28;20502;-77
2022/12/08 03:00:39;;;;;;;11.20;4.53;;;2.40;99.90;;;;;;4227868;28;20447;-78
2022/12/08 03:02:56;;;;;;;12.30;5.47;;;2.50;99.90;;;;;;4219035;28;20814;-78
2022/12/08 03:05:06;;;;;;;11.13;4.77;;;2.80;99.90;;;;;;4218673;28;21010;-77
2022/12/08 03:07:19;;;;;;;13.53;4.73;;;2.60;99.90;;;;;;4220661;28;20869;-77
2022/12/08 03:09:30;;;;;;;9.80;4.33;;;2.50;99.90;;;;;;4218096;28;20446;-78
2022/12/08 03:11:37;;;;;;;9.80;4.90;;;2.90;99.90;;;;;;4224282;28;20452;-77
2022/12/08 03:13:45;;;;;;;9.50;4.30;;;2.40;99.90;;;;;;4218832;28;20453;-78
2022/12/08 03:15:50;;;;;;;15.83;4.70;;;2.40;99.90;;;;;;4220480;28;20486;-77
2022/12/08 03:17:56;;;;;;;13.93;5.13;;;2.50;99.90;;;;;;4228662;28;21012;-77
2022/12/08 03:20:03;;;;;;;11.10;5.07;;;2.40;99.90;;;;;;4218538;28;20439;-78
2022/12/08 03:22:07;;;;;;;13.80;4.63;;;2.40;99.90;;;;;;4215923;28;20466;-77
2022/12/08 03:24:12;;;;;;;9.83;5.23;;;2.40;99.90;;;;;;4219364;28;20514;-77
2022/12/08 03:26:22;;;;;;;10.33;4.80;;;2.40;99.90;;;;;;4221093;28;20474;-77
2022/12/08 03:28:24;;;;;;;12.77;4.80;;;2.40;99.90;;;;;;4223027;28;20458;-78
2022/12/08 03:30:28;;;;;;;13.67;5.07;;;2.50;99.90;;;;;;4227062;28;20516;-77
2022/12/08 03:32:36;;;;;;;14.97;5.47;;;2.50;99.90;;;;;;4216746;28;20782;-78
2022/12/08 03:34:41;;;;;;;10.37;5.07;;;2.50;99.90;;;;;;4215288;28;20506;-77
2022/12/08 03:36:44;;;;;;;9.27;4.57;;;2.50;99.90;;;;;;4220652;28;21043;-78
2022/12/08 03:38:51;;;;;;;13.10;5.20;;;2.50;99.90;;;;;;4218783;28;20450;-77
2022/12/08 03:43:10;;;;;;;11.67;5.20;;;2.50;99.90;;;;;;4217080;28;20462;-78
2022/12/08 03:45:12;;;;;;;12.10;4.90;;;2.40;99.90;;;;;;4213517;28;20479;-78
2022/12/08 03:47:14;;;;;;;9.37;5.03;;;2.40;99.90;;;;;;4218118;28;20473;-78
2022/12/08 03:49:16;;;;;;;9.40;4.90;;;2.40;99.90;;;;;;4223106;28;20545;-77
2022/12/08 03:51:18;;;;;;;9.57;4.97;;;2.40;99.90;;;;;;4218786;28;20455;-77
2022/12/08 03:53:20;;;;;;;12.43;5.80;;;2.40;99.90;;;;;;4222037;28;20450;-78
2022/12/08 03:55:24;;;;;;;10.17;5.27;;;2.30;99.90;;;;;;4226310;28;20486;-78
2022/12/08 03:57:28;;;;;;;11.60;5.80;;;2.30;99.90;;;;;;4224366;28;20831;-77
2022/12/08 03:59:30;;;;;;;14.87;5.37;;;2.30;99.90;;;;;;4223460;28;20489;-77
2022/12/08 04:01:32;;;;;;;10.20;5.00;;;2.30;99.90;;;;;;4216130;28;20556;-78
2022/12/08 04:03:36;;;;;;;17.53;5.97;;;2.30;99.90;;;;;;4229067;28;21047;-78
2022/12/08 04:05:38;;;;;;;14.23;5.33;;;2.30;99.90;;;;;;4219689;28;20536;-77
2022/12/08 04:07:40;;;;;;;12.73;5.03;;;2.30;99.90;;;;;;4219199;28;20939;-77
2022/12/08 04:09:43;;;;;;;15.67;5.73;;;2.30;99.90;;;;;;4218164;28;20502;-78
2022/12/08 04:11:45;;;;;;;11.07;5.47;;;2.30;99.90;;;;;;4223490;28;20463;-77
2022/12/08 04:13:49;;;;;;;13.07;5.67;;;2.30;99.90;;;;;;4222540;28;20449;-77
2022/12/08 04:15:53;;;;;;;10.33;5.03;;;2.30;99.90;;;;;;4220307;28;20499;-76
2022/12/08 04:17:55;;;;;;;14.07;5.30;;;2.30;99.90;;;;;;4217423;28;20496;-78
2022/12/08 04:19:57;;;;;;;12.50;5.83;;;2.30;99.90;;;;;;4218712;28;21140;-77
2022/12/08 04:22:04;;;;;;;13.60;5.87;;;2.30;99.90;;;;;;4220998;28;20442;-76
2022/12/08 04:24:06;;;;;;;10.83;5.50;;;2.30;99.90;;;;;;4221011;28;20584;-77
2022/12/08 04:26:08;;;;;;;16.13;5.80;;;2.30;99.90;;;;;;4221817;28;20923;-76
2022/12/08 04:28:11;;;;;;;15.43;6.23;;;2.30;99.90;;;;;;4213558;28;20998;-78
2022/12/08 04:30:15;;;;;;;16.07;5.93;;;2.30;99.90;;;;;;4221323;28;20976;-77
2022/12/08 04:32:18;;;;;;;16.37;6.63;;;2.30;99.90;;;;;;4220928;28;20540;-78
2022/12/08 04:34:20;;;;;;;19.93;7.47;;;3.20;99.90;;;;;;4220512;28;20474;-77
2022/12/08 04:36:22;;;;;;;11.13;5.90;;;2.30;99.90;;;;;;4215861;28;21245;-76
2022/12/08 04:38:24;;;;;;;9.33;5.47;;;2.40;99.90;;;;;;4213085;28;20447;-77
2022/12/08 04:40:26;;;;;;;13.67;5.70;;;2.30;99.90;;;;;;4216657;28;20442;-77
2022/12/08 04:42:28;;;;;;;13.43;6.13;;;2.30;99.90;;;;;;4221830;28;21022;-77
2022/12/08 04:44:30;;;;;;;9.93;5.47;;;2.30;99.90;;;;;;4226206;28;20466;-77
2022/12/08 04:46:33;;;;;;;13.30;5.90;;;2.20;99.90;;;;;;4223402;28;20521;-77
2022/12/08 04:48:39;;;;;;;13.63;5.87;;;2.30;99.90;;;;;;4218781;28;20823;-77
2022/12/08 04:50:43;;;;;;;12.63;6.47;;;2.30;99.90;;;;;;4223819;28;20863;-77
2022/12/08 04:52:45;;;;;;;12.03;5.50;;;2.50;99.90;;;;;;4213672;28;20435;-77
2022/12/08 04:54:47;;;;;;;10.97;6.10;;;2.30;99.90;;;;;;4221936;28;20463;-77
2022/12/08 04:56:49;;;;;;;12.33;5.80;;;2.30;99.90;;;;;;4218250;28;20446;-78
2022/12/08 04:58:50;;;;;;;14.83;6.60;;;2.30;99.90;;;;;;4217470;28;20455;-77
2022/12/08 05:00:54;;;;;;;15.53;6.80;;;2.50;99.90;;;;;;4219257;28;20451;-77
2022/12/08 05:02:57;;;;;;;12.97;6.20;;;2.30;99.90;;;;;;4216041;28;20446;-76
2022/12/08 05:04:59;;;;;;;12.93;6.27;;;2.30;99.90;;;;;;4216730;28;21033;-77
2022/12/08 05:07:01;;;;;;;15.03;7.03;;;2.30;99.90;;;;;;4218687;28;20486;-77
2022/12/08 05:09:03;;;;;;;14.33;6.60;;;2.30;99.90;;;;;;4218784;28;20475;-77
2022/12/08 05:11:07;;;;;;;15.03;6.77;;;2.30;99.90;;;;;;4216677;28;20462;-77
2022/12/08 05:13:09;;;;;;;12.37;6.23;;;2.30;99.90;;;;;;4219364;28;20920;-77
2022/12/08 05:15:11;;;;;;;10.50;6.27;;;2.40;99.90;;;;;;4218347;28;20550;-77
2022/12/08 05:17:13;;;;;;;14.70;6.80;;;2.40;99.90;;;;;;4224167;28;21144;-76
2022/12/08 05:19:17;;;;;;;12.20;6.30;;;2.40;99.90;;;;;;4219121;28;20478;-76
2022/12/08 05:21:19;;;;;;;17.90;7.17;;;2.30;99.90;;;;;;4215765;28;20451;-76
2022/12/08 05:23:21;;;;;;;12.37;6.73;;;2.50;99.90;;;;;;4222803;28;20485;-76
2022/12/08 05:25:23;;;;;;;13.90;6.43;;;2.40;99.90;;;;;;4215214;28;20498;-77
2022/12/08 05:27:26;;;;;;;17.23;6.70;;;2.40;99.90;;;;;;4216814;28;20446;-77
2022/12/08 05:29:28;;;;;;;17.47;7.43;;;2.30;99.90;;;;;;4217401;28;20451;-77
2022/12/08 05:31:30;;;;;;;14.77;6.90;;;2.30;99.90;;;;;;4215443;28;20491;-78
2022/12/08 05:33:32;;;;;;;14.53;7.47;;;2.60;99.90;;;;;;4216978;28;20439;-77
2022/12/08 05:35:36;;;;;;;15.83;7.03;;;2.30;99.90;;;;;;4214709;28;20534;-78
2022/12/08 05:37:38;;;;;;;14.23;7.13;;;2.30;99.90;;;;;;4219088;28;20464;-76
2022/12/08 05:39:40;;;;;;;12.93;6.77;;;2.40;99.90;;;;;;4214341;28;20451;-76
2022/12/08 05:41:42;;;;;;;18.43;7.60;;;2.30;99.90;;;;;;4216790;28;20954;-77
2022/12/08 05:43:44;;;;;;;15.67;7.30;;;2.60;99.90;;;;;;4219694;28;20522;-78
2022/12/08 05:45:46;;;;;;;16.50;7.70;;;2.40;99.90;;;;;;4216388;28;21065;-77
2022/12/08 05:47:48;;;;;;;16.80;7.37;;;2.40;99.90;;;;;;4218873;28;20450;-76
2022/12/08 05:49:50;;;;;;;17.40;7.40;;;2.40;99.90;;;;;;4215968;28;20446;-77
2022/12/08 05:51:56;;;;;;;15.53;6.80;;;2.40;99.90;;;;;;4213380;28;20536;-76
2022/12/08 05:53:58;;;;;;;15.70;7.53;;;2.40;99.90;;;;;;4214962;28;20550;-77
2022/12/08 05:56:00;;;;;;;21.33;9.83;;;2.40;99.90;;;;;;4213538;28;20980;-77
2022/12/08 05:58:02;;;;;;;14.73;7.13;;;2.40;99.90;;;;;;4218778;28;20462;-77
2022/12/08 06:00:05;;;;;;;14.53;7.33;;;2.30;99.90;;;;;;4220548;28;20520;-77
2022/12/08 06:02:08;;;;;;;12.90;6.80;;;2.40;99.90;;;;;;4219053;28;20538;-77
2022/12/08 06:04:13;;;;;;;14.80;7.73;;;2.70;99.90;;;;;;4213354;28;20538;-77
2022/12/08 06:06:15;;;;;;;14.00;6.93;;;2.40;99.90;;;;;;4213065;28;20577;-77
2022/12/08 06:08:18;;;;;;;15.90;7.23;;;2.30;99.90;;;;;;4215001;28;20809;-77
2022/12/08 06:10:20;;;;;;;14.23;7.10;;;2.30;99.90;;;;;;4217713;28;20796;-77
2022/12/08 06:12:23;;;;;;;15.67;7.03;;;2.40;99.90;;;;;;4217021;28;20982;-77
2022/12/08 06:14:28;;;;;;;15.57;6.77;;;2.30;99.90;;;;;;4216977;28;20498;-76
2022/12/08 06:16:30;;;;;;;16.50;6.87;;;2.30;99.90;;;;;;4219851;28;20445;-76
2022/12/08 06:18:33;;;;;;;14.80;6.80;;;2.30;99.90;;;;;;4214023;28;20461;-77
2022/12/08 06:20:35;;;;;;;13.43;7.10;;;2.30;99.90;;;;;;4218350;28;20458;-77
2022/12/08 06:22:37;;;;;;;12.37;6.73;;;2.20;99.90;;;;;;4214257;28;20493;-77
2022/12/08 06:24:40;;;;;;;15.13;6.97;;;2.20;99.90;;;;;;4214720;28;20533;-77
2022/12/08 06:26:42;;;;;;;13.57;6.77;;;2.20;99.90;;;;;;4213151;28;20513;-76
2022/12/08 06:28:45;;;;;;;14.00;6.73;;;2.20;99.90;;;;;;4212531;28;20451;-77
2022/12/08 06:30:46;;;;;;;14.73;6.87;;;2.20;99.90;;;;;;4212696;28;21016;-77
2022/12/08 06:32:48;;;;;;;12.30;6.27;;;2.20;99.90;;;;;;4220626;28;20449;-77
2022/12/08 06:34:50;;;;;;;14.87;6.70;;;2.20;99.90;;;;;;4217014;28;20532;-77
2022/12/08 06:36:52;;;;;;;15.87;7.70;;;2.20;99.90;;;;;;4219271;28;20447;-77
2022/12/08 06:38:54;;;;;;;15.83;7.93;;;2.10;99.90;;;;;;4211732;28;20483;-77
2022/12/08 06:40:59;;;;;;;14.00;7.57;;;2.10;99.90;;;;;;4216452;28;20500;-77
2022/12/08 06:43:03;;;;;;;15.13;7.13;;;2.10;99.90;;;;;;4222607;28;20474;-76
2022/12/08 06:45:06;;;;;;;15.33;7.43;;;2.10;99.90;;;;;;4218964;27;20493;-77
2022/12/08 06:47:07;;;;;;;13.13;6.70;;;2.10;99.90;;;;;;4222114;28;21074;-77
2022/12/08 06:49:09;;;;;;;16.23;8.00;;;2.30;99.90;;;;;;4218854;28;20512;-77
2022/12/08 06:51:13;;;;;;;12.37;6.53;;;2.10;99.90;;;;;;4219821;27;22200;-77
2022/12/08 06:53:16;;;;;;;14.87;7.47;;;2.00;99.90;;;;;;4214823;28;20454;-77
2022/12/08 06:55:18;;;;;;;15.83;7.20;;;2.00;99.90;;;;;;4222020;28;20475;-78
2022/12/08 06:57:23;;;;;;;13.93;6.97;;;2.00;99.90;;;;;;4223268;28;20535;-77
2022/12/08 06:59:25;;;;;;;17.10;7.00;;;2.30;99.90;;;;;;4222154;28;20447;-77
2022/12/08 07:01:27;;;;;;;15.83;7.97;;;1.90;99.90;;;;;;4214942;28;20446;-77
2022/12/08 07:03:29;;;;;;;13.87;7.00;;;1.90;99.90;;;;;;4219695;28;20458;-77
2022/12/08 07:05:34;;;;;;;15.50;6.90;;;1.90;99.90;;;;;;4221323;28;20489;-77
2022/12/08 07:07:36;;;;;;;15.63;7.10;;;1.90;99.90;;;;;;4222891;28;20473;-77
2022/12/08 07:09:40;;;;;;;15.17;7.10;;;1.90;99.90;;;;;;4222867;28;20446;-77
2022/12/08 07:11:42;;;;;;;13.87;6.40;;;2.30;99.90;;;;;;4220242;28;20944;-77
2022/12/08 07:13:46;;;;;;;14.37;7.07;;;1.90;99.90;;;;;;4224734;27;20833;-77
2022/12/08 07:15:48;;;;;;;17.30;8.00;;;1.90;99.90;;;;;;4226219;28;21025;-78
2022/12/08 07:17:50;;;;;;;14.33;7.00;;;2.30;99.90;;;;;;4219427;28;20508;-77
2022/12/08 07:19:52;;;;;;;15.90;7.77;;;1.90;99.90;;;;;;4218410;28;20458;-78
2022/12/08 07:21:54;;;;;;;16.80;7.93;;;1.90;99.90;;;;;;4220609;28;20461;-78
2022/12/08 07:23:56;;;;;;;19.50;7.63;;;1.90;99.90;;;;;;4214649;28;20498;-78
2022/12/08 07:26:01;;;;;;;20.20;8.30;;;1.90;99.90;;;;;;4211444;28;20568;-78
2022/12/08 07:28:08;;;;;;;14.07;7.13;;;1.90;99.90;;;;;;4220528;28;20569;-78
2022/12/08 07:30:14;;;;;;;15.17;7.27;;;1.90;99.90;;;;;;4218939;28;20483;-77
2022/12/08 07:32:16;;;;;;;14.60;7.40;;;1.90;99.90;;;;;;4216761;28;20446;-78
2022/12/08 07:34:18;;;;;;;15.60;7.37;;;1.90;99.90;;;;;;4218472;28;20459;-78
2022/12/08 07:36:20;;;;;;;14.83;7.47;;;1.90;99.90;;;;;;4219068;28;21005;-77
2022/12/08 07:38:22;;;;;;;15.30;7.63;;;1.90;99.90;;;;;;4217586;28;20443;-80
2022/12/08 07:40:24;;;;;;;18.80;8.03;;;2.00;99.90;;;;;;4226812;28;20512;-77
2022/12/08 07:42:26;;;;;;;13.60;7.03;;;2.00;99.90;;;;;;4216021;28;20472;-77
2022/12/08 07:44:28;;;;;;;17.27;6.90;;;1.90;99.90;;;;;;4216718;28;20839;-77
2022/12/08 07:46:31;;;;;;;17.70;7.60;;;2.00;99.90;;;;;;4213791;28;20482;-77
2022/12/08 07:48:33;;;;;;;14.70;7.97;;;2.00;99.90;;;;;;4215235;28;20824;-77
2022/12/08 07:50:36;;;;;;;13.93;7.40;;;2.00;99.90;;;;;;4217141;27;20527;-77
2022/12/08 07:52:38;;;;;;;13.73;6.87;;;2.10;99.90;;;;;;4217172;28;21056;-78
2022/12/08 07:54:39;;;;;;;14.93;6.77;;;2.00;99.90;;;;;;4212781;28;20506;-77
2022/12/08 07:56:41;;;;;;;13.77;6.60;;;2.10;99.90;;;;;;4217548;28;20511;-77
2022/12/08 07:58:45;;;;;;;13.07;6.67;;;2.00;99.90;;;;;;4214952;28;20482;-77
2022/12/08 08:00:47;;;;;;;15.17;7.43;;;2.00;99.90;;;;;;4213427;28;20489;-77
2022/12/08 08:02:51;;;;;;;14.03;6.90;;;2.00;99.90;;;;;;4214049;28;20549;-77
2022/12/08 08:04:53;;;;;;;18.70;6.63;;;2.00;99.90;;;;;;4218750;28;20510;-78
2022/12/08 08:06:55;;;;;;;15.17;7.23;;;2.00;99.90;;;;;;4219505;28;20487;-77
2022/12/08 08:08:57;;;;;;;15.23;7.23;;;2.10;99.90;;;;;;4220594;28;20861;-77
2022/12/08 08:10:59;;;;;;;15.40;7.13;;;2.10;99.90;;;;;;4219680;28;20512;-77
2022/12/08 08:13:01;;;;;;;17.77;7.33;;;2.10;99.90;;;;;;4219722;28;20479;-78
2022/12/08 08:15:06;;;;;;;15.93;7.23;;;2.10;99.90;;;;;;4221937;28;20487;-78
2022/12/08 08:17:08;;;;;;;14.20;7.27;;;2.20;99.90;;;;;;4215702;28;20475;-78
2022/12/08 08:19:11;;;;;;;15.00;6.83;;;2.20;99.90;;;;;;4221365;28;20462;-77
2022/12/08 08:21:13;;;;;;;15.53;6.77;;;2.20;99.90;;;;;;4219342;28;20451;-77
2022/12/08 08:23:15;;;;;;;13.50;6.57;;;2.20;99.90;;;;;;4216760;28;20478;-77
2022/12/08 08:25:18;;;;;;;13.13;6.27;;;2.20;99.90;;;;;;4218200;28;20481;-77
2022/12/08 08:27:29;;;;;;;12.63;7.10;;;2.20;99.90;;;;;;4221925;28;20487;-77
2022/12/08 08:29:31;;;;;;;14.87;7.13;;;2.20;99.90;;;;;;4217273;28;20443;-77
2022/12/08 08:31:33;;;;;;;12.47;7.07;;;2.60;99.90;;;;;;4218841;28;20454;-78
2022/12/08 08:33:38;;;;;;;12.47;6.43;;;2.30;99.90;;;;;;4216903;28;20558;-77
2022/12/08 08:35:42;;;;;;;14.60;7.10;;;2.30;99.90;;;;;;4212471;28;20474;-77
2022/12/08 08:37:44;;;;;;;12.80;6.90;;;2.30;99.90;;;;;;4212906;27;21027;-78
2022/12/08 08:39:46;;;;;;;13.27;6.63;;;2.40;99.90;;;;;;4217038;28;20484;-77
2022/12/08 08:41:48;;;;;;;14.27;6.60;;;2.40;99.90;;;;;;4219687;28;21067;-76
2022/12/08 08:43:49;;;;;;;13.57;6.97;;;2.50;99.90;;;;;;4216150;28;20550;-77
2022/12/08 08:45:51;;;;;;;13.67;7.17;;;2.50;99.90;;;;;;4213374;28;20478;-78
2022/12/08 08:47:53;;;;;;;11.60;6.70;;;2.60;99.90;;;;;;4219882;28;20578;-78
2022/12/08 08:49:55;;;;;;;11.47;6.47;;;2.60;99.90;;;;;;4216327;28;20464;-78
2022/12/08 08:51:59;;;;;;;17.67;6.53;;;2.60;99.90;;;;;;4218042;28;21413;-78
2022/12/08 08:54:01;;;;;;;15.30;6.47;;;2.70;99.90;;;;;;4215555;28;20531;-77
2022/12/08 08:56:05;;;;;;;11.07;5.53;;;2.70;99.90;;;;;;4217151;28;20483;-77
2022/12/08 08:58:07;;;;;;;10.27;5.80;;;2.90;99.90;;;;;;4217553;28;20794;-79
2022/12/08 09:00:10;;;;;;;10.70;6.20;;;2.80;99.90;;;;;;4214796;28;20458;-77
2022/12/08 09:02:17;;;;;;;12.20;5.67;;;2.80;99.90;;;;;;4218746;28;20461;-78
2022/12/08 09:04:19;;;;;;;11.43;6.13;;;2.80;99.90;;;;;;4217992;28;20443;-78
2022/12/08 09:06:21;;;;;;;9.50;5.40;;;2.90;99.90;;;;;;4215409;28;20454;-77
2022/12/08 09:08:25;;;;;;;14.30;6.23;;;2.90;99.90;;;;;;4215767;28;20543;-77
2022/12/08 09:10:27;;;;;;;12.63;6.30;;;2.90;99.90;;;;;;4215382;28;20786;-77
2022/12/08 09:12:29;;;;;;;9.73;5.30;;;3.00;99.90;;;;;;4216801;28;21240;-78
2022/12/08 09:14:31;;;;;;;8.80;5.50;;;3.00;99.90;;;;;;4218219;28;20475;-80
2022/12/08 09:16:33;;;;;;;10.20;5.30;;;3.10;99.90;;;;;;4223355;28;20450;-76
2022/12/08 09:18:35;;;;;;;9.40;5.50;;;3.10;99.90;;;;;;4216116;28;20496;-76
2022/12/08 09:20:37;;;;;;;10.53;5.60;;;3.20;99.90;;;;;;4215991;28;20446;-77
2022/12/08 09:22:39;;;;;;;9.47;5.57;;;3.20;99.90;;;;;;4218670;28;20473;-76
2022/12/08 09:24:43;;;;;;;9.70;5.80;;;3.20;99.90;;;;;;4215829;28;20512;-77
2022/12/08 09:26:45;;;;;;;10.07;5.67;;;3.30;99.90;;;;;;4214453;28;20450;-76
2022/12/08 09:28:48;;;;;;;9.53;5.50;;;3.20;99.90;;;;;;4216097;28;20455;-76
2022/12/08 09:30:51;;;;;;;13.33;5.87;;;3.20;99.90;;;;;;4219161;28;20462;-77
2022/12/08 09:32:53;;;;;;;11.87;5.60;;;3.30;99.90;;;;;;4214711;28;20490;-79
2022/12/08 09:34:55;;;;;;;9.83;5.77;;;3.30;99.90;;;;;;4216377;28;20594;-77
2022/12/08 09:36:57;;;;;;;10.77;5.73;;;3.30;99.90;;;;;;4216580;28;20479;-77
2022/12/08 09:38:59;;;;;;;13.17;5.67;;;3.40;99.90;;;;;;4216490;28;20468;-77
2022/12/08 09:41:05;;;;;;;11.33;5.90;;;3.30;99.90;;;;;;4220034;28;20967;-77
2022/12/08 09:43:16;;;;;;;12.93;6.23;;;3.40;99.90;;;;;;4215593;28;20844;-77
2022/12/08 09:45:20;;;;;;;10.63;5.60;;;3.40;99.90;;;;;;4214350;28;20474;-77
2022/12/08 09:47:24;;;;;;;10.93;6.30;;;3.40;99.90;;;;;;4214177;28;20486;-76
2022/12/08 09:49:35;;;;;;;14.53;6.60;;;3.40;99.90;;;;;;4215621;28;20889;-77
2022/12/08 09:51:41;;;;;;;9.67;5.77;;;3.50;99.90;;;;;;4216565;28;20447;-77
2022/12/08 09:53:47;;;;;;;12.57;6.73;;;3.50;99.90;;;;;;4216908;28;20454;-76
2022/12/08 09:55:52;;;;;;;13.53;6.63;;;3.50;99.90;;;;;;4219021;28;20471;-76
2022/12/08 09:58:03;;;;;;;15.80;7.83;;;3.60;99.90;;;;;;4215049;28;20443;-77
2022/12/08 10:00:06;;;;;;;12.70;6.87;;;3.60;99.90;;;;;;4222956;28;20541;-77
2022/12/08 10:02:19;;;;;;;13.70;7.13;;;3.70;99.90;;;;;;4214395;28;20595;-77
2022/12/08 10:04:25;;;;;;;12.53;7.30;;;3.70;99.90;;;;;;4218195;28;20446;-77
2022/12/08 10:06:33;;;;;;;13.40;7.17;;;3.80;99.90;;;;;;4220098;28;20494;-77
2022/12/08 10:08:48;;;;;;;13.77;7.60;;;3.80;99.90;;;;;;4213702;28;20567;-77
2022/12/08 10:10:57;;;;;;;13.77;7.33;;;3.90;99.90;;;;;;4216440;28;20517;-80
2022/12/08 10:13:10;;;;;;;16.07;8.30;;;3.90;99.90;;;;;;4219485;28;20455;-79
2022/12/08 10:15:29;;;;;;;13.43;7.40;;;3.90;99.90;;;;;;4218691;28;20516;-79
2022/12/08 10:17:36;;;;;;;14.43;7.23;;;3.90;99.90;;;;;;4222727;28;20523;-78
2022/12/08 10:19:40;;;;;;;13.30;7.40;;;3.90;99.90;;;;;;4230817;28;20461;-80
2022/12/08 10:21:42;;;;;;;16.57;7.37;;;4.50;99.90;;;;;;4219358;28;20451;-79
2022/12/08 10:23:48;;;;;;;13.47;7.70;;;4.00;99.90;;;;;;4220238;28;20450;-79
2022/12/08 10:25:53;;;;;;;13.00;7.53;;;3.90;99.90;;;;;;4220127;28;20486;-77
2022/12/08 10:27:55;;;;;;;14.90;7.87;;;4.00;99.90;;;;;;4229280;27;20482;-79
2022/12/08 10:29:59;;;;;;;13.63;7.63;;;4.00;99.90;;;;;;4220347;28;20451;-78
2022/12/08 10:32:01;;;;;;;13.37;7.47;;;4.00;99.90;;;;;;4216757;28;20437;-78
2022/12/08 10:34:16;;;;;;;15.20;8.30;;;4.00;99.90;;;;;;4219595;28;20488;-79
2022/12/08 10:36:18;;;;;;;14.47;7.90;;;4.10;99.90;;;;;;4218651;28;20476;-78
2022/12/08 10:38:23;;;;;;;15.10;7.87;;;4.10;99.90;;;;;;4226239;27;20455;-78
2022/12/08 10:40:28;;;;;;;12.37;7.50;;;4.10;99.90;;;;;;4224578;28;20443;-78
2022/12/08 10:42:36;;;;;;;14.40;7.03;;;4.20;99.90;;;;;;4223544;28;20438;-78
2022/12/08 10:44:55;;;;;;;14.27;7.53;;;4.20;99.90;;;;;;4219440;28;20474;-79
2022/12/08 10:46:59;;;;;;;14.03;7.07;;;4.20;99.90;;;;;;4217686;28;20482;-83
2022/12/08 10:49:11;;;;;;;14.00;7.90;;;4.30;99.90;;;;;;4225269;28;20486;-78
2022/12/08 10:51:23;;;;;;;13.70;7.50;;;4.40;99.90;;;;;;4223125;28;20489;-78
2022/12/08 10:53:30;;;;;;;16.30;8.43;;;4.40;99.90;;;;;;4215550;28;21053;-78
2022/12/08 10:55:42;;;;;;;14.93;7.47;;;4.50;99.90;;;;;;4220271;28;20571;-77